Time;durP1;ratioP1;P1;durP2;ratioP2;P2;SDS_P1;SDS_P2;PMS_P1;PMS_P2;Temp;Humidity;BMP_temperature;BMP_pressure;BME280_temperature;BME280_humidity;BME280_pressure;Samples;Min_cycle;Max_cycle;Signal;HPM_P1;HPM_P2
2022/05/20 00:01:14;;;;;;;24.85;6.45;;;;;;;;;;5026588;28;20410;-50
2022/05/20 00:03:41;;;;;;;22.20;6.25;;;;;;;;;;5046246;28;20025;-54
2022/05/20 00:06:09;;;;;;;16.98;6.03;;;;;;;;;;5044480;28;20095;-49
2022/05/20 00:08:38;;;;;;;28.17;6.57;;;;;;;;;;5033394;28;20043;-52
2022/05/20 00:11:05;;;;;;;28.23;6.97;;;;;;;;;;5031297;28;20037;-53
2022/05/20 00:13:32;;;;;;;27.45;7.18;;;;;;;;;;5031191;28;20369;-52
2022/05/20 00:15:59;;;;;;;25.52;6.60;;;;;;;;;;5031108;28;20693;-54
2022/05/20 00:18:26;;;;;;;20.95;6.60;;;;;;;;;;5028145;28;20034;-50
2022/05/20 00:20:53;;;;;;;29.13;6.53;;;;;;;;;;5002753;28;20497;-51
2022/05/20 00:23:20;;;;;;;25.60;7.47;;;;;;;;;;5023144;28;20467;-55
2022/05/20 00:25:47;;;;;;;22.30;7.50;;;;;;;;;;5031084;28;20829;-52
2022/05/20 00:28:16;;;;;;;26.50;7.50;;;;;;;;;;5030245;28;20558;-50
2022/05/20 00:30:43;;;;;;;26.98;7.57;;;;;;;;;;5034312;28;20028;-54
2022/05/20 00:33:10;;;;;;;31.83;7.70;;;;;;;;;;5015421;28;20044;-56
2022/05/20 00:35:37;;;;;;;21.33;7.28;;;;;;;;;;5040361;28;20056;-52
2022/05/20 00:38:05;;;;;;;23.15;6.95;;;;;;;;;;5036665;28;20022;-54
2022/05/20 00:40:32;;;;;;;21.58;6.90;;;;;;;;;;5040530;28;20032;-54
2022/05/20 00:43:22;;;;;;;22.10;6.95;;;;;;;;;;5036229;28;20033;-55
2022/05/20 00:45:49;;;;;;;32.30;7.28;;;;;;;;;;5011599;28;20503;-54
2022/05/20 00:48:16;;;;;;;22.42;6.53;;;;;;;;;;5035005;28;20116;-57
2022/05/20 00:50:48;;;;;;;25.20;6.50;;;;;;;;;;5051670;28;20024;-54
2022/05/20 00:53:17;;;;;;;26.23;8.27;;;;;;;;;;5017578;28;20082;-57
2022/05/20 00:55:46;;;;;;;29.55;10.15;;;;;;;;;;5050561;28;20025;-54
2022/05/20 00:58:19;;;;;;;37.95;11.48;;;;;;;;;;5051006;28;20686;-52
2022/05/20 01:00:48;;;;;;;58.58;16.05;;;;;;;;;;5049808;28;20025;-55
2022/05/20 01:03:16;;;;;;;62.20;18.80;;;;;;;;;;5051536;28;20047;-54
2022/05/20 01:05:45;;;;;;;67.47;21.48;;;;;;;;;;5051141;28;20025;-54
2022/05/20 01:08:14;;;;;;;71.57;24.40;;;;;;;;;;5051802;28;20044;-51
2022/05/20 01:10:41;;;;;;;64.78;23.08;;;;;;;;;;5050816;28;20372;-51
2022/05/20 01:13:08;;;;;;;63.58;22.83;;;;;;;;;;5050919;28;20064;-54
2022/05/20 01:15:35;;;;;;;60.95;23.35;;;;;;;;;;5051378;28;20396;-53
2022/05/20 01:18:03;;;;;;;65.38;22.30;;;;;;;;;;5029833;28;20032;-56
2022/05/20 01:20:32;;;;;;;71.25;22.80;;;;;;;;;;5030426;28;20857;-54
2022/05/20 01:23:13;;;;;;;61.03;22.17;;;;;;;;;;5027520;28;20034;-54
2022/05/20 01:25:44;;;;;;;70.68;22.40;;;;;;;;;;5043302;28;20148;-54
2022/05/20 01:28:11;;;;;;;74.33;22.20;;;;;;;;;;5039926;28;20021;-56
2022/05/20 01:30:41;;;;;;;75.68;22.38;;;;;;;;;;5038176;28;20306;-52
2022/05/20 01:33:10;;;;;;;60.65;20.25;;;;;;;;;;5010335;28;20026;-52
2022/05/20 01:35:41;;;;;;;51.15;18.48;;;;;;;;;;5030121;28;20029;-51
2022/05/20 01:38:08;;;;;;;59.50;19.35;;;;;;;;;;5028667;28;20042;-51
2022/05/20 01:40:47;;;;;;;55.85;18.63;;;;;;;;;;5029804;28;20061;-48
2022/05/20 01:43:18;;;;;;;57.05;18.63;;;;;;;;;;5037480;28;20553;-55
2022/05/20 01:45:53;;;;;;;60.15;18.33;;;;;;;;;;5029827;28;20452;-55
2022/05/20 01:48:26;;;;;;;54.55;16.50;;;;;;;;;;5027142;28;20623;-50
2022/05/20 01:50:55;;;;;;;49.70;15.90;;;;;;;;;;5028046;28;20033;-54
2022/05/20 01:53:28;;;;;;;52.15;17.33;;;;;;;;;;5028961;28;20044;-50
2022/05/20 01:56:02;;;;;;;50.72;16.05;;;;;;;;;;5029926;28;20116;-50
2022/05/20 01:58:31;;;;;;;47.70;15.90;;;;;;;;;;5027585;28;20079;-54
2022/05/20 02:01:01;;;;;;;50.50;16.48;;;;;;;;;;5043153;28;20032;-54
2022/05/20 02:03:48;;;;;;;47.42;14.88;;;;;;;;;;5040071;22;20042;-55
2022/05/20 02:06:28;;;;;;;46.70;14.43;;;;;;;;;;5005438;28;20030;-55
2022/05/20 02:09:03;;;;;;;48.58;14.73;;;;;;;;;;5013033;28;20038;-55
2022/05/20 02:11:30;;;;;;;40.25;13.93;;;;;;;;;;5012079;28;20376;-53
2022/05/20 02:14:13;;;;;;;38.85;14.38;;;;;;;;;;5008243;28;20107;-50
2022/05/20 02:16:43;;;;;;;40.65;13.38;;;;;;;;;;5006305;28;20026;-52
2022/05/20 02:19:14;;;;;;;42.10;13.40;;;;;;;;;;5010626;28;20026;-49
2022/05/20 02:21:43;;;;;;;41.80;14.45;;;;;;;;;;5006466;28;20034;-45
2022/05/20 02:24:11;;;;;;;36.35;12.40;;;;;;;;;;5009509;28;20121;-48
2022/05/20 02:26:41;;;;;;;39.28;12.45;;;;;;;;;;5010044;28;20029;-55
2022/05/20 02:29:12;;;;;;;34.80;12.40;;;;;;;;;;5010190;28;20038;-51
2022/05/20 02:31:41;;;;;;;35.22;12.90;;;;;;;;;;5010377;28;20033;-49
2022/05/20 02:34:08;;;;;;;34.13;11.35;;;;;;;;;;5018655;28;20064;-52
2022/05/20 02:36:36;;;;;;;35.40;11.80;;;;;;;;;;5019570;28;20117;-57
2022/05/20 02:39:15;;;;;;;33.83;11.88;;;;;;;;;;5008678;28;20475;-57
2022/05/20 02:41:46;;;;;;;30.02;11.52;;;;;;;;;;5008486;28;20034;-50
2022/05/20 02:44:13;;;;;;;36.05;11.27;;;;;;;;;;5008234;28;20042;-55
2022/05/20 02:46:41;;;;;;;30.98;10.70;;;;;;;;;;5010539;28;20030;-53
2022/05/20 02:49:08;;;;;;;28.33;10.65;;;;;;;;;;5009892;28;20117;-51
2022/05/20 02:51:35;;;;;;;33.70;10.95;;;;;;;;;;5010903;28;20022;-52
2022/05/20 02:54:02;;;;;;;29.73;10.00;;;;;;;;;;5010912;28;20026;-51
2022/05/20 02:56:29;;;;;;;29.42;11.00;;;;;;;;;;5011073;28;20037;-50
2022/05/20 03:04:26;;;;;;;22.20;9.00;;;;;;;;;;5010520;28;20061;-56
2022/05/20 03:06:54;;;;;;;27.17;9.50;;;;;;;;;;5015161;28;20032;-52
2022/05/20 03:09:23;;;;;;;27.63;9.88;;;;;;;;;;5020156;28;20710;-50
2022/05/20 03:11:50;;;;;;;29.10;9.40;;;;;;;;;;5020542;28;20013;-55
2022/05/20 03:14:18;;;;;;;24.92;9.25;;;;;;;;;;5016875;28;20049;-56
2022/05/20 03:16:45;;;;;;;23.30;9.30;;;;;;;;;;5020660;28;20422;-51
2022/05/20 03:19:13;;;;;;;31.45;9.15;;;;;;;;;;5021935;28;20040;-53
2022/05/20 03:21:41;;;;;;;22.38;7.72;;;;;;;;;;5019701;28;20042;-53
2022/05/20 03:24:09;;;;;;;23.15;8.35;;;;;;;;;;5022203;28;20025;-51
2022/05/20 03:26:36;;;;;;;23.05;8.10;;;;;;;;;;5020095;28;20018;-51
2022/05/20 03:29:04;;;;;;;25.02;8.50;;;;;;;;;;5024967;28;20033;-54
2022/05/20 03:31:33;;;;;;;19.50;7.80;;;;;;;;;;5025859;28;20094;-54
2022/05/20 03:34:05;;;;;;;18.75;7.28;;;;;;;;;;5033224;28;20025;-51
2022/05/20 03:36:35;;;;;;;18.25;8.02;;;;;;;;;;5034816;28;20065;-52
2022/05/20 03:39:02;;;;;;;22.55;7.80;;;;;;;;;;5034853;28;20074;-52
2022/05/20 03:41:30;;;;;;;17.92;7.07;;;;;;;;;;5034146;28;20021;-55
2022/05/20 03:43:57;;;;;;;18.00;7.30;;;;;;;;;;5034591;28;20045;-50
2022/05/20 03:46:24;;;;;;;23.23;7.47;;;;;;;;;;5034838;28;20028;-52
2022/05/20 03:48:52;;;;;;;18.15;7.30;;;;;;;;;;5033690;28;20025;-54
2022/05/20 03:51:19;;;;;;;18.98;8.15;;;;;;;;;;5034716;28;20049;-52
2022/05/20 03:53:45;;;;;;;18.80;6.90;;;;;;;;;;5034050;28;20115;-50
2022/05/20 03:56:12;;;;;;;16.23;7.07;;;;;;;;;;5034442;28;20033;-57
2022/05/20 03:58:39;;;;;;;19.38;6.95;;;;;;;;;;5034597;28;20028;-52
2022/05/20 04:03:52;;;;;;;19.52;6.63;;;;;;;;;;5034339;28;20115;-52
2022/05/20 04:06:19;;;;;;;16.63;6.57;;;;;;;;;;5033718;28;20026;-52
2022/05/20 04:08:46;;;;;;;16.63;6.15;;;;;;;;;;5034325;28;20025;-49
2022/05/20 04:11:14;;;;;;;22.00;7.05;;;;;;;;;;5034388;28;20029;-54
2022/05/20 04:13:42;;;;;;;15.52;5.88;;;;;;;;;;5033953;28;20029;-48
2022/05/20 04:16:10;;;;;;;16.08;6.32;;;;;;;;;;5033421;28;20124;-54
2022/05/20 04:18:38;;;;;;;15.02;6.20;;;;;;;;;;5033692;28;20041;-51
2022/05/20 04:21:05;;;;;;;16.27;6.30;;;;;;;;;;5033672;28;20095;-54
2022/05/20 04:23:32;;;;;;;17.35;6.45;;;;;;;;;;5033997;28;20049;-54
2022/05/20 04:25:59;;;;;;;19.13;6.45;;;;;;;;;;5033164;28;20072;-54
2022/05/20 04:28:26;;;;;;;15.07;6.13;;;;;;;;;;5034159;28;20049;-56
2022/05/20 04:30:56;;;;;;;16.02;5.38;;;;;;;;;;5033719;28;20021;-51
2022/05/20 04:33:23;;;;;;;15.80;6.13;;;;;;;;;;5033277;28;20029;-52
2022/05/20 04:35:51;;;;;;;14.07;5.28;;;;;;;;;;5032731;28;20026;-52
2022/05/20 04:38:18;;;;;;;13.68;5.20;;;;;;;;;;5033532;28;20026;-54
2022/05/20 04:46:56;;;;;;;15.00;5.68;;;;;;;;;;5033735;28;20078;-56
2022/05/20 04:49:05;;;;;;;12.45;5.35;;;;;;;;;;5032763;28;20119;-50
2022/05/20 04:51:33;;;;;;;12.07;5.20;;;;;;;;;;5033111;28;20116;-53
2022/05/20 04:56:46;;;;;;;15.50;5.10;;;;;;;;;;5032805;28;20039;-49
2022/05/20 04:59:13;;;;;;;11.35;5.47;;;;;;;;;;5033529;28;20029;-54
2022/05/20 05:01:40;;;;;;;12.48;5.22;;;;;;;;;;5032487;28;20079;-55
2022/05/20 05:04:08;;;;;;;10.18;5.00;;;;;;;;;;5032920;28;20108;-50
2022/05/20 05:06:35;;;;;;;11.88;5.05;;;;;;;;;;5032652;28;20087;-53
2022/05/20 05:09:03;;;;;;;11.25;4.85;;;;;;;;;;5032579;28;20430;-53
2022/05/20 05:11:30;;;;;;;13.02;4.97;;;;;;;;;;5031412;28;20521;-52
2022/05/20 05:13:57;;;;;;;11.00;4.65;;;;;;;;;;5031530;28;20034;-52
2022/05/20 05:16:24;;;;;;;11.60;4.75;;;;;;;;;;5032387;28;20029;-51
2022/05/20 05:18:51;;;;;;;12.95;5.20;;;;;;;;;;5033310;28;20032;-53
2022/05/20 05:21:18;;;;;;;11.80;3.88;;;;;;;;;;5022150;28;20091;-50
2022/05/20 05:23:45;;;;;;;11.73;5.00;;;;;;;;;;5011808;28;20132;-52
2022/05/20 05:26:13;;;;;;;9.20;3.83;;;;;;;;;;5012117;28;20070;-52
2022/05/20 05:28:40;;;;;;;12.75;4.72;;;;;;;;;;5012836;28;20109;-52
2022/05/20 05:31:07;;;;;;;9.27;4.00;;;;;;;;;;5011453;28;20034;-52
2022/05/20 05:33:34;;;;;;;9.95;4.22;;;;;;;;;;5011297;28;20030;-52
2022/05/20 05:36:01;;;;;;;12.65;4.60;;;;;;;;;;5011889;28;20407;-49
2022/05/20 05:38:28;;;;;;;7.80;3.90;;;;;;;;;;5011867;28;20421;-57
2022/05/20 05:40:55;;;;;;;10.10;4.10;;;;;;;;;;5010303;28;20169;-53
2022/05/20 05:43:22;;;;;;;8.55;4.00;;;;;;;;;;5010334;28;20092;-52
2022/05/20 05:45:49;;;;;;;9.27;4.40;;;;;;;;;;5009749;28;20152;-54
2022/05/20 05:48:17;;;;;;;8.18;3.72;;;;;;;;;;5012208;28;20030;-53
2022/05/20 05:50:44;;;;;;;11.10;3.88;;;;;;;;;;5011593;28;20395;-53
2022/05/20 05:53:13;;;;;;;9.18;4.18;;;;;;;;;;5011449;28;20030;-52
2022/05/20 05:55:41;;;;;;;8.43;4.03;;;;;;;;;;5012382;28;20022;-53
2022/05/20 05:58:08;;;;;;;8.32;4.00;;;;;;;;;;5011890;28;20092;-51
2022/05/20 06:00:35;;;;;;;7.03;3.42;;;;;;;;;;5012626;28;20036;-52
2022/05/20 06:03:02;;;;;;;8.73;3.53;;;;;;;;;;5009706;28;20050;-50
2022/05/20 06:05:30;;;;;;;8.27;3.53;;;;;;;;;;5012201;28;20038;-54
2022/05/20 06:07:59;;;;;;;7.20;3.50;;;;;;;;;;5011690;28;20117;-54
2022/05/20 06:10:26;;;;;;;10.45;3.75;;;;;;;;;;5012430;28;20030;-52
2022/05/20 06:12:55;;;;;;;9.88;3.63;;;;;;;;;;5011250;28;20040;-55
2022/05/20 06:15:22;;;;;;;8.10;3.67;;;;;;;;;;5012142;28;20044;-53
2022/05/20 06:17:53;;;;;;;7.68;3.15;;;;;;;;;;5011901;28;20028;-48
2022/05/20 06:20:21;;;;;;;8.40;3.38;;;;;;;;;;5011775;28;20030;-54
2022/05/20 06:22:49;;;;;;;7.68;3.50;;;;;;;;;;5011083;28;20034;-48
2022/05/20 06:25:16;;;;;;;8.50;3.70;;;;;;;;;;5011414;28;20077;-52
2022/05/20 06:27:43;;;;;;;7.53;3.42;;;;;;;;;;5012040;28;20110;-51
2022/05/20 06:30:12;;;;;;;6.60;3.20;;;;;;;;;;5012051;28;20541;-51
2022/05/20 06:32:39;;;;;;;7.68;3.40;;;;;;;;;;5011493;28;20060;-52
2022/05/20 06:40:47;;;;;;;6.60;3.30;;;;;;;;;;5011701;28;20441;-54
2022/05/20 06:43:19;;;;;;;6.28;2.90;;;;;;;;;;5010274;28;20121;-53
2022/05/20 06:45:47;;;;;;;7.45;3.03;;;;;;;;;;5011222;28;20038;-51
2022/05/20 06:48:15;;;;;;;6.13;3.00;;;;;;;;;;5011902;28;20042;-53
2022/05/20 06:50:42;;;;;;;9.63;2.83;;;;;;;;;;5010984;28;20025;-53
2022/05/20 06:53:09;;;;;;;5.32;2.63;;;;;;;;;;5011329;28;20480;-54
2022/05/20 06:55:37;;;;;;;5.82;3.20;;;;;;;;;;5011266;28;20026;-50
2022/05/20 06:58:04;;;;;;;7.05;2.78;;;;;;;;;;5012011;28;20038;-51
2022/05/20 07:00:31;;;;;;;7.00;3.13;;;;;;;;;;5014818;28;20026;-52
2022/05/20 07:02:58;;;;;;;6.00;3.25;;;;;;;;;;5014706;28;20053;-54
2022/05/20 07:05:27;;;;;;;8.20;2.58;;;;;;;;;;5015168;28;20125;-54
2022/05/20 07:07:56;;;;;;;7.18;2.80;;;;;;;;;;5015591;28;20113;-53
2022/05/20 07:10:23;;;;;;;7.93;3.25;;;;;;;;;;5014166;28;20109;-48
2022/05/20 07:12:50;;;;;;;5.25;2.85;;;;;;;;;;5015268;28;20026;-52
2022/05/20 07:15:17;;;;;;;6.78;3.00;;;;;;;;;;5014522;28;20026;-52
2022/05/20 07:17:47;;;;;;;6.82;2.90;;;;;;;;;;5015436;28;20030;-54
2022/05/20 07:20:14;;;;;;;6.45;2.95;;;;;;;;;;5014808;28;20073;-49
2022/05/20 07:22:41;;;;;;;8.07;2.67;;;;;;;;;;5014757;28;20030;-54
2022/05/20 07:25:08;;;;;;;6.60;3.15;;;;;;;;;;5015126;28;20034;-52
2022/05/20 07:27:35;;;;;;;5.93;2.75;;;;;;;;;;5014408;28;20117;-51
2022/05/20 07:30:02;;;;;;;5.28;2.40;;;;;;;;;;5013915;28;20022;-52
2022/05/20 07:32:29;;;;;;;5.93;2.70;;;;;;;;;;5014510;28;20025;-53
2022/05/20 07:34:56;;;;;;;5.50;2.65;;;;;;;;;;5014404;28;20037;-48
2022/05/20 07:37:23;;;;;;;7.13;2.63;;;;;;;;;;5014972;28;20022;-53
2022/05/20 07:39:50;;;;;;;5.38;2.58;;;;;;;;;;5014536;28;20022;-54
2022/05/20 07:42:17;;;;;;;6.63;2.83;;;;;;;;;;5014176;28;20044;-54
2022/05/20 07:44:44;;;;;;;6.03;2.75;;;;;;;;;;5014703;28;20037;-54
2022/05/20 07:47:11;;;;;;;6.38;2.63;;;;;;;;;;5014474;28;20029;-55
2022/05/20 07:49:38;;;;;;;5.30;2.40;;;;;;;;;;5014515;28;20024;-53
2022/05/20 07:52:07;;;;;;;6.65;2.47;;;;;;;;;;5013940;28;20028;-54
2022/05/20 07:54:36;;;;;;;4.75;2.63;;;;;;;;;;5014777;28;20036;-49
2022/05/20 07:57:07;;;;;;;6.07;2.42;;;;;;;;;;5013882;28;20026;-56
2022/05/20 07:59:51;;;;;;;5.47;2.58;;;;;;;;;;5013909;28;20026;-56
2022/05/20 08:02:20;;;;;;;6.95;2.50;;;;;;;;;;5013028;28;20384;-47
2022/05/20 08:05:01;;;;;;;7.10;2.42;;;;;;;;;;5013778;28;20041;-53
2022/05/20 08:07:59;;;;;;;5.28;2.25;;;;;;;;;;5013560;28;20033;-52
2022/05/20 08:10:27;;;;;;;4.75;2.35;;;;;;;;;;4994954;28;20053;-51
2022/05/20 08:12:54;;;;;;;6.05;2.47;;;;;;;;;;5013528;28;20044;-51
2022/05/20 08:15:21;;;;;;;5.75;2.00;;;;;;;;;;5013787;28;20080;-50
2022/05/20 08:17:48;;;;;;;6.68;2.40;;;;;;;;;;5013825;28;20049;-51
2022/05/20 08:20:21;;;;;;;5.60;2.40;;;;;;;;;;5014148;28;20100;-53
2022/05/20 08:22:48;;;;;;;6.72;2.30;;;;;;;;;;5013342;28;20037;-50
2022/05/20 08:25:16;;;;;;;5.97;2.42;;;;;;;;;;5014216;28;20037;-52
2022/05/20 08:27:43;;;;;;;4.80;2.30;;;;;;;;;;5013494;28;20144;-49
2022/05/20 08:30:18;;;;;;;5.82;2.25;;;;;;;;;;5013558;28;20034;-52
2022/05/20 08:32:45;;;;;;;6.30;2.05;;;;;;;;;;5013782;28;20195;-54
2022/05/20 08:35:12;;;;;;;3.78;2.20;;;;;;;;;;5013869;28;20113;-49
2022/05/20 08:37:40;;;;;;;3.70;2.05;;;;;;;;;;5013862;28;20037;-52
2022/05/20 08:40:11;;;;;;;6.40;2.22;;;;;;;;;;5012912;28;20026;-53
2022/05/20 08:42:38;;;;;;;4.87;2.30;;;;;;;;;;5013836;28;20381;-50
2022/05/20 08:45:06;;;;;;;4.05;1.83;;;;;;;;;;5013563;28;20018;-53
2022/05/20 08:47:44;;;;;;;5.10;2.35;;;;;;;;;;5013352;28;20033;-51
2022/05/20 08:50:15;;;;;;;3.15;1.85;;;;;;;;;;5012526;28;20030;-51
2022/05/20 08:52:43;;;;;;;3.87;2.10;;;;;;;;;;5012664;28;20034;-51
2022/05/20 08:55:11;;;;;;;4.10;2.03;;;;;;;;;;5013754;28;20030;-50
2022/05/20 08:57:39;;;;;;;4.65;2.20;;;;;;;;;;5012951;28;20037;-52
2022/05/20 09:00:09;;;;;;;4.40;2.15;;;;;;;;;;5013424;28;20555;-49
2022/05/20 09:02:36;;;;;;;4.95;2.40;;;;;;;;;;5013551;28;20030;-52
2022/05/20 09:05:23;;;;;;;6.30;2.15;;;;;;;;;;5012308;28;20081;-53
2022/05/20 09:08:06;;;;;;;4.55;2.13;;;;;;;;;;5012859;28;20022;-51
2022/05/20 09:10:35;;;;;;;4.18;1.92;;;;;;;;;;5013368;28;20029;-50
2022/05/20 09:13:09;;;;;;;3.47;1.90;;;;;;;;;;5012749;28;20053;-53
2022/05/20 09:15:48;;;;;;;4.53;1.85;;;;;;;;;;5013290;28;20109;-54
2022/05/20 09:18:21;;;;;;;5.47;1.75;;;;;;;;;;5012381;28;20107;-54
2022/05/20 09:20:52;;;;;;;3.75;2.00;;;;;;;;;;5012500;28;20018;-50
2022/05/20 09:23:23;;;;;;;6.07;2.00;;;;;;;;;;5012064;28;20026;-52
2022/05/20 09:26:02;;;;;;;5.95;2.13;;;;;;;;;;5013047;28;20057;-51
2022/05/20 09:28:35;;;;;;;3.50;1.70;;;;;;;;;;5012149;28;20045;-52
2022/05/20 09:31:14;;;;;;;4.40;2.10;;;;;;;;;;5011552;28;20443;-51
2022/05/20 09:33:47;;;;;;;3.03;1.80;;;;;;;;;;5012578;28;20022;-54
2022/05/20 09:36:28;;;;;;;3.78;2.20;;;;;;;;;;5012570;28;20029;-50
2022/05/20 09:39:07;;;;;;;5.32;2.17;;;;;;;;;;5010883;28;20055;-54
2022/05/20 09:41:43;;;;;;;4.85;1.80;;;;;;;;;;5012061;28;20030;-54
2022/05/20 09:44:12;;;;;;;5.85;2.00;;;;;;;;;;5012635;28;20114;-53
2022/05/20 09:46:49;;;;;;;5.25;2.15;;;;;;;;;;5011932;28;20399;-55
2022/05/20 09:49:17;;;;;;;10.30;1.92;;;;;;;;;;5012118;28;20034;-53
2022/05/20 09:51:57;;;;;;;4.80;2.13;;;;;;;;;;5012512;28;20424;-54
2022/05/20 09:54:40;;;;;;;5.57;2.10;;;;;;;;;;5012245;28;20034;-50
2022/05/20 09:57:15;;;;;;;5.55;1.98;;;;;;;;;;5012419;28;20033;-54
2022/05/20 09:59:45;;;;;;;3.67;1.95;;;;;;;;;;5011875;28;20030;-53
2022/05/20 10:02:18;;;;;;;5.30;1.92;;;;;;;;;;5011805;28;20042;-48
2022/05/20 10:04:44;;;;;;;4.68;2.03;;;;;;;;;;5012278;28;20049;-52
2022/05/20 10:07:13;;;;;;;7.15;2.10;;;;;;;;;;5011794;28;20034;-54
2022/05/20 10:09:51;;;;;;;7.95;2.20;;;;;;;;;;5011822;28;20077;-48
2022/05/20 10:12:36;;;;;;;7.60;2.53;;;;;;;;;;5011107;28;20033;-52
2022/05/20 10:15:26;;;;;;;7.45;1.73;;;;;;;;;;5012015;28;20034;-53
2022/05/20 10:18:14;;;;;;;6.75;2.25;;;;;;;;;;4999113;28;20042;-55
2022/05/20 10:21:04;;;;;;;6.72;2.10;;;;;;;;;;5011781;28;20112;-51
2022/05/20 10:23:37;;;;;;;6.05;1.90;;;;;;;;;;4966605;28;20121;-54
2022/05/20 10:26:21;;;;;;;5.50;1.85;;;;;;;;;;5011458;28;20048;-51
2022/05/20 10:34:34;;;;;;;6.28;2.00;;;;;;;;;;5012411;28;20531;-53
2022/05/20 10:37:13;;;;;;;5.28;1.77;;;;;;;;;;5011279;28;20029;-54
2022/05/20 10:39:53;;;;;;;5.90;1.98;;;;;;;;;;5011306;28;20101;-54
2022/05/20 10:42:39;;;;;;;5.07;1.98;;;;;;;;;;5011664;28;20065;-53
2022/05/20 10:51:04;;;;;;;8.07;2.28;;;;;;;;;;5011090;28;20057;-55
2022/05/20 10:53:43;;;;;;;3.78;1.75;;;;;;;;;;5011650;28;20038;-49
2022/05/20 10:56:13;;;;;;;5.88;2.10;;;;;;;;;;5011735;28;20539;-52
2022/05/20 10:58:55;;;;;;;7.05;1.70;;;;;;;;;;5011045;28;20026;-53
2022/05/20 11:01:34;;;;;;;3.70;1.98;;;;;;;;;;5011861;28;20488;-52
2022/05/20 11:04:06;;;;;;;8.82;2.00;;;;;;;;;;5010658;28;20109;-56
2022/05/20 11:06:49;;;;;;;6.57;1.88;;;;;;;;;;5010574;28;20392;-50
2022/05/20 11:09:15;;;;;;;;;;;;;;;;;;5011639;28;20137;-52
2022/05/20 11:11:59;;;;;;;4.72;2.10;;;;;;;;;;5011230;28;20386;-51
2022/05/20 11:14:38;;;;;;;4.90;2.35;;;;;;;;;;5010611;28;20072;-55
2022/05/20 11:17:23;;;;;;;4.72;1.92;;;;;;;;;;5009260;28;20100;-56
2022/05/20 11:20:11;;;;;;;5.78;2.00;;;;;;;;;;5010275;28;20024;-53
2022/05/20 11:22:40;;;;;;;6.20;2.03;;;;;;;;;;5011566;28;20483;-52
2022/05/20 11:25:18;;;;;;;3.92;1.90;;;;;;;;;;5011481;28;20487;-53
2022/05/20 11:27:58;;;;;;;5.03;1.80;;;;;;;;;;5011275;28;20161;-52
2022/05/20 11:30:34;;;;;;;6.80;2.20;;;;;;;;;;5010989;28;20030;-51
2022/05/20 11:33:01;;;;;;;7.97;1.80;;;;;;;;;;5008861;28;20461;-53
2022/05/20 11:35:46;;;;;;;5.70;1.80;;;;;;;;;;5011329;28;20061;-48
2022/05/20 11:38:19;;;;;;;7.38;1.85;;;;;;;;;;5010722;28;20022;-52
2022/05/20 11:40:53;;;;;;;5.72;2.20;;;;;;;;;;5023054;28;20129;-54
2022/05/20 11:43:32;;;;;;;4.38;2.20;;;;;;;;;;5030283;28;20068;-49
2022/05/20 11:46:17;;;;;;;4.80;2.15;;;;;;;;;;5033634;28;20464;-52
2022/05/20 11:48:52;;;;;;;5.63;2.17;;;;;;;;;;5033488;28;20037;-49
2022/05/20 11:51:22;;;;;;;3.83;1.92;;;;;;;;;;5034623;28;20029;-51
2022/05/20 11:54:15;;;;;;;7.53;1.90;;;;;;;;;;5033989;28;20037;-53
2022/05/20 11:56:45;;;;;;;4.68;1.80;;;;;;;;;;5029750;28;20025;-53
2022/05/20 11:59:26;;;;;;;4.63;1.98;;;;;;;;;;5034251;28;20034;-53
2022/05/20 12:01:56;;;;;;;6.45;2.13;;;;;;;;;;5033727;28;20053;-54
2022/05/20 12:04:24;;;;;;;5.97;2.20;;;;;;;;;;5033546;28;20060;-54
2022/05/20 12:06:56;;;;;;;7.40;2.05;;;;;;;;;;5034139;28;20036;-52
2022/05/20 12:09:32;;;;;;;3.75;1.90;;;;;;;;;;5033378;28;20061;-48
2022/05/20 12:12:17;;;;;;;5.10;2.28;;;;;;;;;;5033957;28;20029;-46
2022/05/20 12:15:00;;;;;;;11.23;2.15;;;;;;;;;;5034096;28;20034;-51
2022/05/20 12:17:31;;;;;;;9.57;2.60;;;;;;;;;;5033172;28;20108;-55
2022/05/20 12:25:48;;;;;;;4.85;1.95;;;;;;;;;;5029725;28;20083;-53
2022/05/20 12:28:21;;;;;;;8.63;2.20;;;;;;;;;;4992247;28;20400;-48
2022/05/20 12:31:09;;;;;;;10.40;2.70;;;;;;;;;;4992364;28;20030;-54
2022/05/20 12:33:51;;;;;;;7.97;1.90;;;;;;;;;;4992225;28;20046;-54
2022/05/20 12:36:31;;;;;;;8.60;2.50;;;;;;;;;;4993731;28;20061;-57
2022/05/20 12:39:10;;;;;;;13.13;2.33;;;;;;;;;;4991580;28;20076;-55
2022/05/20 12:41:46;;;;;;;6.80;2.22;;;;;;;;;;4993045;28;20053;-54
2022/05/20 12:44:22;;;;;;;9.18;2.60;;;;;;;;;;4992785;28;20030;-52
2022/05/20 12:46:58;;;;;;;6.38;1.88;;;;;;;;;;4993384;28;20039;-51
2022/05/20 12:49:27;;;;;;;9.32;2.10;;;;;;;;;;4992644;28;20077;-54
2022/05/20 12:51:54;;;;;;;9.60;2.40;;;;;;;;;;4992366;28;20108;-55
2022/05/20 12:54:25;;;;;;;13.00;2.38;;;;;;;;;;4993658;28;20034;-53
2022/05/20 12:57:03;;;;;;;6.57;2.50;;;;;;;;;;4992767;28;20030;-55
2022/05/20 12:59:30;;;;;;;10.52;2.85;;;;;;;;;;4993339;28;20026;-49
2022/05/20 13:01:59;;;;;;;5.95;2.40;;;;;;;;;;4991818;28;20511;-56
2022/05/20 13:04:27;;;;;;;4.55;2.00;;;;;;;;;;4993581;28;20176;-59
2022/05/20 13:06:54;;;;;;;8.18;2.35;;;;;;;;;;4975577;28;20105;-59
2022/05/20 13:09:23;;;;;;;7.53;2.70;;;;;;;;;;4992222;28;20038;-58
2022/05/20 13:11:50;;;;;;;9.38;2.20;;;;;;;;;;4991434;28;20066;-57
2022/05/20 13:14:19;;;;;;;10.10;2.95;;;;;;;;;;4974436;28;20042;-53
2022/05/20 13:16:48;;;;;;;10.40;2.70;;;;;;;;;;4993414;28;20045;-57
2022/05/20 13:19:15;;;;;;;9.43;3.15;;;;;;;;;;4974311;28;20042;-58
2022/05/20 13:21:53;;;;;;;12.23;3.30;;;;;;;;;;4990623;28;20040;-61
2022/05/20 13:24:25;;;;;;;6.30;2.58;;;;;;;;;;4992664;28;20027;-51
2022/05/20 13:27:02;;;;;;;6.78;2.50;;;;;;;;;;4997083;28;20040;-55
2022/05/20 13:29:29;;;;;;;9.07;2.90;;;;;;;;;;4999158;28;20038;-52
2022/05/20 13:32:16;;;;;;;8.63;3.15;;;;;;;;;;4991943;28;20121;-59
2022/05/20 13:34:44;;;;;;;10.07;2.80;;;;;;;;;;4992714;28;20026;-57
2022/05/20 13:37:13;;;;;;;6.68;2.58;;;;;;;;;;4992707;28;20038;-52
2022/05/20 13:39:40;;;;;;;7.95;2.90;;;;;;;;;;4991885;28;20037;-56
2022/05/20 13:42:11;;;;;;;9.32;3.08;;;;;;;;;;4991780;28;20113;-59
2022/05/20 13:44:40;;;;;;;9.93;2.72;;;;;;;;;;4991446;28;20524;-51
2022/05/20 13:49:55;;;;;;;9.25;2.20;;;;;;;;;;4991672;28;20061;-52
2022/05/20 13:52:23;;;;;;;9.85;2.67;;;;;;;;;;4991344;28;20045;-55
2022/05/20 13:54:56;;;;;;;5.00;2.60;;;;;;;;;;4991481;28;20404;-58
2022/05/20 13:57:33;;;;;;;7.75;2.67;;;;;;;;;;4992049;28;20037;-50
2022/05/20 14:00:02;;;;;;;5.68;2.47;;;;;;;;;;4971908;28;20041;-50
2022/05/20 14:02:39;;;;;;;11.38;2.42;;;;;;;;;;4991126;28;20033;-53
2022/05/20 14:05:30;;;;;;;5.35;2.40;;;;;;;;;;4959742;28;20128;-51
2022/05/20 14:08:00;;;;;;;10.15;2.67;;;;;;;;;;4998365;28;20435;-53
2022/05/20 14:10:30;;;;;;;12.23;2.67;;;;;;;;;;4992283;28;20117;-54
2022/05/20 14:12:59;;;;;;;7.35;2.58;;;;;;;;;;5002520;28;20080;-52
2022/05/20 14:15:31;;;;;;;8.68;2.42;;;;;;;;;;5010489;28;20092;-56
2022/05/20 14:18:01;;;;;;;8.57;2.85;;;;;;;;;;5010124;28;20042;-57
2022/05/20 14:20:29;;;;;;;10.05;2.60;;;;;;;;;;4993287;28;20031;-52
2022/05/20 14:22:56;;;;;;;6.20;2.60;;;;;;;;;;4991293;28;20058;-58
2022/05/20 14:25:24;;;;;;;9.90;2.53;;;;;;;;;;4991036;28;20031;-54
2022/05/20 14:27:52;;;;;;;8.00;2.47;;;;;;;;;;4989914;28;20117;-54
2022/05/20 14:30:32;;;;;;;9.13;2.28;;;;;;;;;;4991757;28;20031;-56
2022/05/20 14:33:01;;;;;;;7.80;2.28;;;;;;;;;;4991324;28;20488;-57
2022/05/20 14:35:33;;;;;;;4.75;2.40;;;;;;;;;;4990319;28;20038;-56
2022/05/20 14:38:00;;;;;;;;;;;;;;;;;;4990781;28;20113;-58
2022/05/20 14:40:31;;;;;;;7.47;2.30;;;;;;;;;;4990774;28;19909;-56
2022/05/20 14:43:05;;;;;;;11.27;2.00;;;;;;;;;;4972592;28;20400;-57
2022/05/20 14:45:37;;;;;;;7.35;2.20;;;;;;;;;;4991079;28;20397;-51
2022/05/20 14:48:18;;;;;;;6.77;1.87;;;;;;;;;;4990103;28;20038;-51
2022/05/20 14:50:46;;;;;;;4.20;2.05;;;;;;;;;;4991037;28;20100;-49
2022/05/20 14:53:36;;;;;;;8.35;2.40;;;;;;;;;;4991335;28;20050;-52
2022/05/20 14:56:03;;;;;;;8.10;2.05;;;;;;;;;;4990306;28;20034;-57
2022/05/20 14:58:32;;;;;;;7.45;2.30;;;;;;;;;;4989491;28;20034;-57
2022/05/20 15:01:01;;;;;;;8.32;2.22;;;;;;;;;;4990320;28;20026;-57
2022/05/20 15:03:30;;;;;;;13.23;2.33;;;;;;;;;;4976031;28;20038;-58
2022/05/20 15:05:58;;;;;;;6.78;2.50;;;;;;;;;;5010796;28;20080;-57
2022/05/20 15:08:26;;;;;;;6.45;1.92;;;;;;;;;;5009304;28;20037;-54
2022/05/20 15:10:57;;;;;;;5.82;1.92;;;;;;;;;;5010881;28;20026;-58
2022/05/20 15:13:26;;;;;;;5.57;1.92;;;;;;;;;;5009959;28;20041;-58
2022/05/20 15:15:53;;;;;;;4.90;2.00;;;;;;;;;;5009677;28;20036;-59
2022/05/20 15:18:20;;;;;;;5.70;1.95;;;;;;;;;;5010688;28;20041;-60
2022/05/20 15:20:50;;;;;;;8.02;2.20;;;;;;;;;;5012908;28;20033;-58
2022/05/20 15:23:38;;;;;;;6.72;2.13;;;;;;;;;;5013801;28;20030;-57
2022/05/20 15:26:07;;;;;;;9.60;2.22;;;;;;;;;;5013691;28;20459;-60
2022/05/20 15:28:53;;;;;;;6.32;2.15;;;;;;;;;;5013688;28;20026;-61
2022/05/20 15:37:16;;;;;;;9.45;2.53;;;;;;;;;;5014694;28;20057;-52
2022/05/20 15:39:54;;;;;;;7.90;2.08;;;;;;;;;;4976389;28;20080;-55
2022/05/20 15:42:22;;;;;;;7.60;2.00;;;;;;;;;;5012071;28;20419;-55
2022/05/20 15:44:49;;;;;;;11.88;2.35;;;;;;;;;;5012999;28;20049;-47
2022/05/20 15:47:16;;;;;;;8.00;2.00;;;;;;;;;;5014651;28;20136;-52